sensor_id;sensor_type;location;lat;lon;timestamp;P1;durP1;ratioP1;P2;durP2;ratioP2
14903;SDS011;7543;53.148;8.234;2023-12-20T00:02:08;4.33;;;1.03;;
14903;SDS011;7543;53.148;8.234;2023-12-20T00:04:36;4.77;;;1.20;;
14903;SDS011;7543;53.148;8.234;2023-12-20T00:07:04;6.50;;;1.47;;
14903;SDS011;7543;53.148;8.234;2023-12-20T00:09:32;5.00;;;1.27;;
14903;SDS011;7543;53.148;8.234;2023-12-20T00:12:01;2.33;;;0.70;;
14903;SDS011;7543;53.148;8.234;2023-12-20T00:14:30;8.07;;;1.33;;
14903;SDS011;7543;53.148;8.234;2023-12-20T00:16:59;4.57;;;1.07;;
14903;SDS011;7543;53.148;8.234;2023-12-20T00:19:27;3.00;;;0.90;;
14903;SDS011;7543;53.148;8.234;2023-12-20T00:21:55;4.20;;;1.20;;
14903;SDS011;7543;53.148;8.234;2023-12-20T00:24:24;4.20;;;1.10;;
14903;SDS011;7543;53.148;8.234;2023-12-20T00:26:52;6.20;;;1.00;;
14903;SDS011;7543;53.148;8.234;2023-12-20T00:29:20;7.17;;;1.47;;
14903;SDS011;7543;53.148;8.234;2023-12-20T00:31:50;7.03;;;1.37;;
14903;SDS011;7543;53.148;8.234;2023-12-20T00:34:18;7.60;;;1.30;;
14903;SDS011;7543;53.148;8.234;2023-12-20T00:36:47;4.80;;;1.40;;
14903;SDS011;7543;53.148;8.234;2023-12-20T00:39:15;5.67;;;1.10;;
14903;SDS011;7543;53.148;8.234;2023-12-20T00:41:43;6.80;;;1.40;;
14903;SDS011;7543;53.148;8.234;2023-12-20T00:44:12;9.40;;;1.30;;
14903;SDS011;7543;53.148;8.234;2023-12-20T00:46:40;4.07;;;1.20;;
14903;SDS011;7543;53.148;8.234;2023-12-20T00:49:10;5.90;;;1.37;;
14903;SDS011;7543;53.148;8.234;2023-12-20T00:51:38;6.70;;;1.27;;
14903;SDS011;7543;53.148;8.234;2023-12-20T00:54:06;4.70;;;1.37;;
14903;SDS011;7543;53.148;8.234;2023-12-20T00:56:35;4.00;;;1.40;;
14903;SDS011;7543;53.148;8.234;2023-12-20T00:59:04;5.60;;;1.00;;
14903;SDS011;7543;53.148;8.234;2023-12-20T01:01:32;8.77;;;1.37;;
14903;SDS011;7543;53.148;8.234;2023-12-20T01:04:00;7.10;;;1.17;;
14903;SDS011;7543;53.148;8.234;2023-12-20T01:06:30;6.77;;;1.50;;
14903;SDS011;7543;53.148;8.234;2023-12-20T01:08:58;5.67;;;1.20;;
14903;SDS011;7543;53.148;8.234;2023-12-20T01:11:27;1.57;;;0.67;;
14903;SDS011;7543;53.148;8.234;2023-12-20T01:13:55;8.30;;;1.67;;
14903;SDS011;7543;53.148;8.234;2023-12-20T01:16:24;4.43;;;1.00;;
14903;SDS011;7543;53.148;8.234;2023-12-20T01:18:52;5.17;;;1.43;;
14903;SDS011;7543;53.148;8.234;2023-12-20T01:21:20;4.47;;;1.30;;
14903;SDS011;7543;53.148;8.234;2023-12-20T01:23:49;6.30;;;1.20;;
14903;SDS011;7543;53.148;8.234;2023-12-20T01:26:17;4.37;;;1.07;;
14903;SDS011;7543;53.148;8.234;2023-12-20T01:28:46;5.00;;;0.80;;
14903;SDS011;7543;53.148;8.234;2023-12-20T01:31:14;5.43;;;1.20;;
14903;SDS011;7543;53.148;8.234;2023-12-20T01:33:42;6.53;;;1.10;;
14903;SDS011;7543;53.148;8.234;2023-12-20T01:36:11;2.93;;;0.87;;
14903;SDS011;7543;53.148;8.234;2023-12-20T01:38:39;4.37;;;0.80;;
14903;SDS011;7543;53.148;8.234;2023-12-20T01:41:09;3.67;;;0.97;;
14903;SDS011;7543;53.148;8.234;2023-12-20T01:43:37;7.07;;;1.43;;
14903;SDS011;7543;53.148;8.234;2023-12-20T01:46:05;5.30;;;1.30;;
14903;SDS011;7543;53.148;8.234;2023-12-20T01:48:33;4.80;;;1.10;;
14903;SDS011;7543;53.148;8.234;2023-12-20T01:51:03;3.17;;;1.20;;
14903;SDS011;7543;53.148;8.234;2023-12-20T01:53:31;4.73;;;1.30;;
14903;SDS011;7543;53.148;8.234;2023-12-20T01:56:00;7.17;;;1.60;;
14903;SDS011;7543;53.148;8.234;2023-12-20T01:58:30;4.00;;;1.33;;
14903;SDS011;7543;53.148;8.234;2023-12-20T02:00:58;3.93;;;1.07;;
14903;SDS011;7543;53.148;8.234;2023-12-20T02:03:27;10.90;;;1.63;;
14903;SDS011;7543;53.148;8.234;2023-12-20T02:05:55;8.77;;;1.47;;
14903;SDS011;7543;53.148;8.234;2023-12-20T02:08:23;3.27;;;1.07;;
14903;SDS011;7543;53.148;8.234;2023-12-20T02:10:52;4.30;;;1.30;;
14903;SDS011;7543;53.148;8.234;2023-12-20T02:13:20;7.67;;;1.33;;
14903;SDS011;7543;53.148;8.234;2023-12-20T02:15:50;4.97;;;1.40;;
14903;SDS011;7543;53.148;8.234;2023-12-20T02:18:18;7.47;;;1.67;;
14903;SDS011;7543;53.148;8.234;2023-12-20T02:20:47;6.97;;;1.37;;
14903;SDS011;7543;53.148;8.234;2023-12-20T02:23:17;4.57;;;1.10;;
14903;SDS011;7543;53.148;8.234;2023-12-20T02:25:46;5.30;;;1.20;;
14903;SDS011;7543;53.148;8.234;2023-12-20T02:28:15;4.83;;;1.07;;
14903;SDS011;7543;53.148;8.234;2023-12-20T02:30:44;5.23;;;1.50;;
14903;SDS011;7543;53.148;8.234;2023-12-20T02:33:12;6.93;;;1.33;;
14903;SDS011;7543;53.148;8.234;2023-12-20T02:35:42;2.10;;;1.13;;
14903;SDS011;7543;53.148;8.234;2023-12-20T02:38:10;4.43;;;1.13;;
14903;SDS011;7543;53.148;8.234;2023-12-20T02:40:40;5.53;;;1.60;;
14903;SDS011;7543;53.148;8.234;2023-12-20T02:43:08;5.13;;;1.00;;
14903;SDS011;7543;53.148;8.234;2023-12-20T02:45:36;2.93;;;0.90;;
14903;SDS011;7543;53.148;8.234;2023-12-20T02:48:05;4.53;;;1.30;;
14903;SDS011;7543;53.148;8.234;2023-12-20T02:50:33;8.27;;;1.37;;
14903;SDS011;7543;53.148;8.234;2023-12-20T02:53:02;3.23;;;0.97;;
14903;SDS011;7543;53.148;8.234;2023-12-20T02:55:31;5.60;;;1.27;;
14903;SDS011;7543;53.148;8.234;2023-12-20T02:58:00;12.00;;;1.60;;
14903;SDS011;7543;53.148;8.234;2023-12-20T03:00:29;6.40;;;1.23;;
14903;SDS011;7543;53.148;8.234;2023-12-20T03:02:57;4.87;;;1.23;;
14903;SDS011;7543;53.148;8.234;2023-12-20T03:05:26;7.03;;;1.33;;
14903;SDS011;7543;53.148;8.234;2023-12-20T03:07:55;6.43;;;1.47;;
14903;SDS011;7543;53.148;8.234;2023-12-20T03:10:23;4.90;;;1.40;;
14903;SDS011;7543;53.148;8.234;2023-12-20T03:12:51;4.97;;;0.77;;
14903;SDS011;7543;53.148;8.234;2023-12-20T03:15:21;5.13;;;1.20;;
14903;SDS011;7543;53.148;8.234;2023-12-20T03:17:49;4.67;;;1.00;;
14903;SDS011;7543;53.148;8.234;2023-12-20T03:20:18;6.60;;;1.40;;
14903;SDS011;7543;53.148;8.234;2023-12-20T03:22:46;5.07;;;1.23;;
14903;SDS011;7543;53.148;8.234;2023-12-20T03:25:14;8.13;;;1.00;;
14903;SDS011;7543;53.148;8.234;2023-12-20T03:27:43;7.73;;;1.83;;
14903;SDS011;7543;53.148;8.234;2023-12-20T03:30:11;3.10;;;1.20;;
14903;SDS011;7543;53.148;8.234;2023-12-20T03:32:42;7.80;;;1.37;;
14903;SDS011;7543;53.148;8.234;2023-12-20T03:35:11;7.53;;;1.70;;
14903;SDS011;7543;53.148;8.234;2023-12-20T03:37:39;2.90;;;1.33;;
14903;SDS011;7543;53.148;8.234;2023-12-20T03:40:08;6.83;;;1.90;;
14903;SDS011;7543;53.148;8.234;2023-12-20T03:42:37;8.33;;;1.50;;
14903;SDS011;7543;53.148;8.234;2023-12-20T03:45:06;4.23;;;1.77;;
14903;SDS011;7543;53.148;8.234;2023-12-20T03:47:35;7.73;;;1.30;;
14903;SDS011;7543;53.148;8.234;2023-12-20T03:50:05;6.73;;;1.80;;
14903;SDS011;7543;53.148;8.234;2023-12-20T03:52:34;6.47;;;1.87;;
14903;SDS011;7543;53.148;8.234;2023-12-20T03:55:03;7.37;;;1.30;;
14903;SDS011;7543;53.148;8.234;2023-12-20T03:57:31;10.33;;;1.27;;
14903;SDS011;7543;53.148;8.234;2023-12-20T04:00:00;9.43;;;2.07;;
14903;SDS011;7543;53.148;8.234;2023-12-20T04:02:28;4.53;;;1.10;;
14903;SDS011;7543;53.148;8.234;2023-12-20T04:04:56;4.70;;;1.30;;
14903;SDS011;7543;53.148;8.234;2023-12-20T04:07:26;5.50;;;1.70;;
14903;SDS011;7543;53.148;8.234;2023-12-20T04:09:54;7.43;;;1.40;;
14903;SDS011;7543;53.148;8.234;2023-12-20T04:12:23;6.03;;;1.10;;
14903;SDS011;7543;53.148;8.234;2023-12-20T04:14:51;5.00;;;1.50;;
14903;SDS011;7543;53.148;8.234;2023-12-20T04:17:20;5.50;;;1.17;;
14903;SDS011;7543;53.148;8.234;2023-12-20T04:19:49;7.77;;;1.87;;
14903;SDS011;7543;53.148;8.234;2023-12-20T04:22:17;2.20;;;1.17;;
14903;SDS011;7543;53.148;8.234;2023-12-20T04:24:47;5.63;;;1.77;;
14903;SDS011;7543;53.148;8.234;2023-12-20T04:27:16;8.23;;;1.23;;
14903;SDS011;7543;53.148;8.234;2023-12-20T04:29:44;11.63;;;1.73;;
14903;SDS011;7543;53.148;8.234;2023-12-20T04:32:12;9.17;;;1.50;;
14903;SDS011;7543;53.148;8.234;2023-12-20T04:34:41;10.67;;;2.13;;
14903;SDS011;7543;53.148;8.234;2023-12-20T04:37:09;3.60;;;1.33;;
14903;SDS011;7543;53.148;8.234;2023-12-20T04:39:39;10.20;;;1.43;;
14903;SDS011;7543;53.148;8.234;2023-12-20T04:42:09;2.97;;;1.47;;
14903;SDS011;7543;53.148;8.234;2023-12-20T04:44:38;6.97;;;1.30;;
14903;SDS011;7543;53.148;8.234;2023-12-20T04:47:06;6.80;;;1.57;;
14903;SDS011;7543;53.148;8.234;2023-12-20T04:49:34;8.67;;;2.00;;
14903;SDS011;7543;53.148;8.234;2023-12-20T04:52:03;6.97;;;1.57;;
14903;SDS011;7543;53.148;8.234;2023-12-20T04:54:32;12.00;;;1.60;;
14903;SDS011;7543;53.148;8.234;2023-12-20T04:57:00;6.63;;;2.00;;
14903;SDS011;7543;53.148;8.234;2023-12-20T04:59:30;7.37;;;1.80;;
14903;SDS011;7543;53.148;8.234;2023-12-20T05:01:58;8.23;;;1.80;;
14903;SDS011;7543;53.148;8.234;2023-12-20T05:04:27;7.60;;;1.83;;
14903;SDS011;7543;53.148;8.234;2023-12-20T05:06:55;12.10;;;1.67;;
14903;SDS011;7543;53.148;8.234;2023-12-20T05:09:23;13.50;;;2.27;;
14903;SDS011;7543;53.148;8.234;2023-12-20T05:11:52;6.10;;;1.67;;
14903;SDS011;7543;53.148;8.234;2023-12-20T05:14:20;6.30;;;1.67;;
14903;SDS011;7543;53.148;8.234;2023-12-20T05:16:50;11.77;;;2.37;;
14903;SDS011;7543;53.148;8.234;2023-12-20T05:19:18;9.17;;;1.63;;
14903;SDS011;7543;53.148;8.234;2023-12-20T05:21:46;6.90;;;1.80;;
14903;SDS011;7543;53.148;8.234;2023-12-20T05:24:15;9.43;;;1.83;;
14903;SDS011;7543;53.148;8.234;2023-12-20T05:26:43;8.10;;;1.60;;
14903;SDS011;7543;53.148;8.234;2023-12-20T05:29:11;9.60;;;1.80;;
14903;SDS011;7543;53.148;8.234;2023-12-20T05:31:40;8.40;;;2.00;;
14903;SDS011;7543;53.148;8.234;2023-12-20T05:34:09;9.97;;;1.70;;
14903;SDS011;7543;53.148;8.234;2023-12-20T05:36:38;10.17;;;1.73;;
14903;SDS011;7543;53.148;8.234;2023-12-20T05:39:06;7.77;;;1.83;;
14903;SDS011;7543;53.148;8.234;2023-12-20T05:41:35;7.97;;;1.57;;
14903;SDS011;7543;53.148;8.234;2023-12-20T05:44:03;11.37;;;2.30;;
14903;SDS011;7543;53.148;8.234;2023-12-20T05:46:32;10.03;;;2.10;;
14903;SDS011;7543;53.148;8.234;2023-12-20T05:49:00;6.80;;;1.87;;
14903;SDS011;7543;53.148;8.234;2023-12-20T05:51:31;9.50;;;1.93;;
14903;SDS011;7543;53.148;8.234;2023-12-20T05:53:59;10.10;;;2.27;;
14903;SDS011;7543;53.148;8.234;2023-12-20T05:56:28;15.57;;;2.13;;
14903;SDS011;7543;53.148;8.234;2023-12-20T05:58:56;25.10;;;3.10;;
14903;SDS011;7543;53.148;8.234;2023-12-20T06:01:25;9.27;;;1.80;;
14903;SDS011;7543;53.148;8.234;2023-12-20T06:03:53;6.50;;;1.97;;
14903;SDS011;7543;53.148;8.234;2023-12-20T06:06:22;5.60;;;1.77;;
14903;SDS011;7543;53.148;8.234;2023-12-20T06:08:52;7.97;;;1.73;;
14903;SDS011;7543;53.148;8.234;2023-12-20T06:11:21;9.67;;;1.97;;
14903;SDS011;7543;53.148;8.234;2023-12-20T06:13:49;10.17;;;2.00;;
14903;SDS011;7543;53.148;8.234;2023-12-20T06:16:18;6.60;;;1.43;;
14903;SDS011;7543;53.148;8.234;2023-12-20T06:18:47;13.33;;;2.13;;
14903;SDS011;7543;53.148;8.234;2023-12-20T06:21:15;6.60;;;1.57;;
14903;SDS011;7543;53.148;8.234;2023-12-20T06:23:43;7.67;;;1.93;;
14903;SDS011;7543;53.148;8.234;2023-12-20T06:26:13;11.97;;;1.97;;
14903;SDS011;7543;53.148;8.234;2023-12-20T06:28:41;14.80;;;2.60;;
14903;SDS011;7543;53.148;8.234;2023-12-20T06:31:10;11.80;;;2.10;;
14903;SDS011;7543;53.148;8.234;2023-12-20T06:33:38;6.60;;;1.87;;
14903;SDS011;7543;53.148;8.234;2023-12-20T06:36:10;12.27;;;1.90;;
14903;SDS011;7543;53.148;8.234;2023-12-20T06:38:39;4.57;;;1.93;;
14903;SDS011;7543;53.148;8.234;2023-12-20T06:41:13;14.73;;;2.10;;
14903;SDS011;7543;53.148;8.234;2023-12-20T06:43:42;14.17;;;2.23;;
14903;SDS011;7543;53.148;8.234;2023-12-20T06:46:11;9.03;;;2.07;;
14903;SDS011;7543;53.148;8.234;2023-12-20T06:48:39;12.67;;;2.07;;
14903;SDS011;7543;53.148;8.234;2023-12-20T06:51:10;13.30;;;1.87;;
14903;SDS011;7543;53.148;8.234;2023-12-20T06:53:42;8.67;;;2.20;;
14903;SDS011;7543;53.148;8.234;2023-12-20T06:56:10;9.03;;;1.67;;
14903;SDS011;7543;53.148;8.234;2023-12-20T06:58:40;7.60;;;2.10;;
14903;SDS011;7543;53.148;8.234;2023-12-20T07:01:10;5.10;;;1.90;;
14903;SDS011;7543;53.148;8.234;2023-12-20T07:03:39;9.47;;;1.93;;
14903;SDS011;7543;53.148;8.234;2023-12-20T07:06:08;4.00;;;1.37;;
14903;SDS011;7543;53.148;8.234;2023-12-20T07:08:36;6.20;;;2.07;;
14903;SDS011;7543;53.148;8.234;2023-12-20T07:11:05;10.10;;;2.37;;
14903;SDS011;7543;53.148;8.234;2023-12-20T07:13:33;19.37;;;2.83;;
14903;SDS011;7543;53.148;8.234;2023-12-20T07:16:03;12.07;;;2.40;;
14903;SDS011;7543;53.148;8.234;2023-12-20T07:18:32;9.60;;;2.23;;
14903;SDS011;7543;53.148;8.234;2023-12-20T07:21:00;17.43;;;2.57;;
14903;SDS011;7543;53.148;8.234;2023-12-20T07:23:28;10.60;;;2.13;;
14903;SDS011;7543;53.148;8.234;2023-12-20T07:25:57;11.57;;;2.00;;
14903;SDS011;7543;53.148;8.234;2023-12-20T07:28:25;10.43;;;1.87;;
14903;SDS011;7543;53.148;8.234;2023-12-20T07:30:54;12.37;;;2.73;;
14903;SDS011;7543;53.148;8.234;2023-12-20T07:33:24;13.77;;;1.90;;
14903;SDS011;7543;53.148;8.234;2023-12-20T07:35:52;13.07;;;2.40;;
14903;SDS011;7543;53.148;8.234;2023-12-20T07:38:20;6.97;;;2.60;;
14903;SDS011;7543;53.148;8.234;2023-12-20T07:40:49;8.67;;;2.03;;
14903;SDS011;7543;53.148;8.234;2023-12-20T07:43:17;10.20;;;1.90;;
14903;SDS011;7543;53.148;8.234;2023-12-20T07:45:45;4.10;;;1.67;;
14903;SDS011;7543;53.148;8.234;2023-12-20T07:48:14;11.57;;;2.33;;
14903;SDS011;7543;53.148;8.234;2023-12-20T07:50:44;16.57;;;2.60;;
14903;SDS011;7543;53.148;8.234;2023-12-20T07:53:12;13.43;;;2.03;;
14903;SDS011;7543;53.148;8.234;2023-12-20T07:55:40;9.80;;;2.20;;
14903;SDS011;7543;53.148;8.234;2023-12-20T07:58:09;5.67;;;1.83;;
14903;SDS011;7543;53.148;8.234;2023-12-20T08:00:38;7.03;;;1.97;;
14903;SDS011;7543;53.148;8.234;2023-12-20T08:03:06;10.97;;;2.23;;
14903;SDS011;7543;53.148;8.234;2023-12-20T08:05:35;9.67;;;2.13;;
14903;SDS011;7543;53.148;8.234;2023-12-20T08:08:05;8.93;;;2.00;;
14903;SDS011;7543;53.148;8.234;2023-12-20T08:10:35;15.60;;;2.37;;
14903;SDS011;7543;53.148;8.234;2023-12-20T08:13:03;5.93;;;1.80;;
14903;SDS011;7543;53.148;8.234;2023-12-20T08:15:31;10.33;;;1.93;;
14903;SDS011;7543;53.148;8.234;2023-12-20T08:18:00;10.37;;;2.83;;
14903;SDS011;7543;53.148;8.234;2023-12-20T08:20:28;10.37;;;2.63;;
14903;SDS011;7543;53.148;8.234;2023-12-20T08:22:56;7.37;;;1.90;;
14903;SDS011;7543;53.148;8.234;2023-12-20T08:25:26;8.87;;;2.30;;
14903;SDS011;7543;53.148;8.234;2023-12-20T08:27:55;7.53;;;2.23;;
14903;SDS011;7543;53.148;8.234;2023-12-20T08:30:23;5.87;;;1.63;;
14903;SDS011;7543;53.148;8.234;2023-12-20T08:32:51;6.43;;;2.10;;
14903;SDS011;7543;53.148;8.234;2023-12-20T08:35:20;13.10;;;2.40;;
14903;SDS011;7543;53.148;8.234;2023-12-20T08:37:48;9.83;;;2.70;;
14903;SDS011;7543;53.148;8.234;2023-12-20T08:40:16;9.60;;;2.10;;
14903;SDS011;7543;53.148;8.234;2023-12-20T08:42:46;10.00;;;2.63;;
14903;SDS011;7543;53.148;8.234;2023-12-20T08:45:14;11.83;;;2.50;;
14903;SDS011;7543;53.148;8.234;2023-12-20T08:47:43;6.10;;;1.80;;
14903;SDS011;7543;53.148;8.234;2023-12-20T08:50:12;12.03;;;2.10;;
14903;SDS011;7543;53.148;8.234;2023-12-20T08:52:42;9.73;;;2.47;;
14903;SDS011;7543;53.148;8.234;2023-12-20T08:55:11;12.07;;;1.93;;
14903;SDS011;7543;53.148;8.234;2023-12-20T08:57:41;11.20;;;2.07;;
14903;SDS011;7543;53.148;8.234;2023-12-20T09:00:12;6.57;;;1.60;;
14903;SDS011;7543;53.148;8.234;2023-12-20T09:02:42;8.13;;;2.20;;
14903;SDS011;7543;53.148;8.234;2023-12-20T09:05:53;9.23;;;2.07;;
14903;SDS011;7543;53.148;8.234;2023-12-20T09:09:07;17.10;;;2.30;;
14903;SDS011;7543;53.148;8.234;2023-12-20T09:12:25;8.83;;;2.27;;
14903;SDS011;7543;53.148;8.234;2023-12-20T09:15:40;12.03;;;1.93;;
14903;SDS011;7543;53.148;8.234;2023-12-20T09:18:54;9.43;;;2.20;;
14903;SDS011;7543;53.148;8.234;2023-12-20T09:22:07;7.33;;;1.60;;
14903;SDS011;7543;53.148;8.234;2023-12-20T09:25:20;4.67;;;0.93;;
14903;SDS011;7543;53.148;8.234;2023-12-20T09:28:35;1.57;;;0.40;;
14903;SDS011;7543;53.148;8.234;2023-12-20T09:31:50;4.17;;;0.67;;
14903;SDS011;7543;53.148;8.234;2023-12-20T09:35:04;5.10;;;0.57;;
14903;SDS011;7543;53.148;8.234;2023-12-20T09:38:18;2.77;;;0.60;;
14903;SDS011;7543;53.148;8.234;2023-12-20T09:41:31;2.40;;;0.70;;
14903;SDS011;7543;53.148;8.234;2023-12-20T09:44:46;2.60;;;1.10;;
14903;SDS011;7543;53.148;8.234;2023-12-20T09:48:10;2.70;;;0.70;;
14903;SDS011;7543;53.148;8.234;2023-12-20T09:51:39;6.40;;;0.87;;
14903;SDS011;7543;53.148;8.234;2023-12-20T09:54:53;1.93;;;0.70;;
14903;SDS011;7543;53.148;8.234;2023-12-20T10:03:34;2.37;;;0.90;;
14903;SDS011;7543;53.148;8.234;2023-12-20T10:07:04;2.30;;;0.80;;
14903;SDS011;7543;53.148;8.234;2023-12-20T10:10:31;2.53;;;0.60;;
14903;SDS011;7543;53.148;8.234;2023-12-20T10:36:10;3.33;;;0.80;;
14903;SDS011;7543;53.148;8.234;2023-12-20T10:39:24;4.80;;;0.90;;
14903;SDS011;7543;53.148;8.234;2023-12-20T10:42:37;4.27;;;1.23;;
14903;SDS011;7543;53.148;8.234;2023-12-20T10:45:52;3.20;;;0.90;;
14903;SDS011;7543;53.148;8.234;2023-12-20T10:49:05;3.73;;;0.90;;
14903;SDS011;7543;53.148;8.234;2023-12-20T10:52:22;3.50;;;0.83;;
14903;SDS011;7543;53.148;8.234;2023-12-20T10:55:36;4.93;;;1.10;;
14903;SDS011;7543;53.148;8.234;2023-12-20T10:58:49;4.80;;;0.90;;
14903;SDS011;7543;53.148;8.234;2023-12-20T11:02:02;3.57;;;1.00;;
14903;SDS011;7543;53.148;8.234;2023-12-20T11:04:35;2.13;;;0.73;;
14903;SDS011;7543;53.148;8.234;2023-12-20T11:07:08;6.07;;;1.10;;
14903;SDS011;7543;53.148;8.234;2023-12-20T11:09:47;5.73;;;0.90;;
14903;SDS011;7543;53.148;8.234;2023-12-20T11:12:22;3.83;;;0.57;;
14903;SDS011;7543;53.148;8.234;2023-12-20T11:14:54;3.40;;;1.20;;
14903;SDS011;7543;53.148;8.234;2023-12-20T11:17:24;4.00;;;0.90;;
14903;SDS011;7543;53.148;8.234;2023-12-20T11:22:51;4.13;;;0.83;;
14903;SDS011;7543;53.148;8.234;2023-12-20T11:25:22;3.47;;;1.03;;
14903;SDS011;7543;53.148;8.234;2023-12-20T11:30:41;5.40;;;1.20;;
14903;SDS011;7543;53.148;8.234;2023-12-20T11:33:10;2.97;;;1.07;;
14903;SDS011;7543;53.148;8.234;2023-12-20T11:35:39;3.27;;;0.83;;
14903;SDS011;7543;53.148;8.234;2023-12-20T11:38:08;7.63;;;1.10;;
14903;SDS011;7543;53.148;8.234;2023-12-20T11:40:38;6.77;;;1.13;;
14903;SDS011;7543;53.148;8.234;2023-12-20T11:43:06;4.07;;;1.10;;
14903;SDS011;7543;53.148;8.234;2023-12-20T11:45:35;3.30;;;0.90;;
14903;SDS011;7543;53.148;8.234;2023-12-20T11:48:04;9.00;;;1.40;;
14903;SDS011;7543;53.148;8.234;2023-12-20T11:50:34;8.57;;;1.53;;
14903;SDS011;7543;53.148;8.234;2023-12-20T11:53:03;10.43;;;1.33;;
14903;SDS011;7543;53.148;8.234;2023-12-20T11:55:31;11.40;;;1.60;;
14903;SDS011;7543;53.148;8.234;2023-12-20T11:58:04;6.83;;;1.57;;
14903;SDS011;7543;53.148;8.234;2023-12-20T12:00:33;9.03;;;1.27;;
14903;SDS011;7543;53.148;8.234;2023-12-20T12:03:01;7.70;;;1.37;;
14903;SDS011;7543;53.148;8.234;2023-12-20T12:05:31;7.67;;;1.80;;
14903;SDS011;7543;53.148;8.234;2023-12-20T12:08:00;10.40;;;1.67;;
14903;SDS011;7543;53.148;8.234;2023-12-20T12:10:29;3.73;;;1.17;;
14903;SDS011;7543;53.148;8.234;2023-12-20T12:13:23;6.63;;;1.40;;
14903;SDS011;7543;53.148;8.234;2023-12-20T12:15:54;4.37;;;1.23;;
14903;SDS011;7543;53.148;8.234;2023-12-20T12:18:22;7.30;;;1.67;;
14903;SDS011;7543;53.148;8.234;2023-12-20T12:20:51;10.57;;;1.80;;
14903;SDS011;7543;53.148;8.234;2023-12-20T12:23:28;6.10;;;1.40;;
14903;SDS011;7543;53.148;8.234;2023-12-20T12:25:56;10.27;;;1.67;;
14903;SDS011;7543;53.148;8.234;2023-12-20T12:28:27;8.83;;;1.50;;
14903;SDS011;7543;53.148;8.234;2023-12-20T12:30:56;9.30;;;2.23;;
14903;SDS011;7543;53.148;8.234;2023-12-20T12:33:25;8.73;;;1.50;;
14903;SDS011;7543;53.148;8.234;2023-12-20T12:35:55;5.60;;;1.67;;
14903;SDS011;7543;53.148;8.234;2023-12-20T12:38:24;8.63;;;1.77;;
14903;SDS011;7543;53.148;8.234;2023-12-20T12:40:54;7.37;;;1.60;;
14903;SDS011;7543;53.148;8.234;2023-12-20T12:43:23;6.90;;;1.17;;
14903;SDS011;7543;53.148;8.234;2023-12-20T12:45:53;7.53;;;1.57;;
14903;SDS011;7543;53.148;8.234;2023-12-20T12:48:22;5.27;;;1.40;;
14903;SDS011;7543;53.148;8.234;2023-12-20T12:50:50;5.93;;;1.57;;
14903;SDS011;7543;53.148;8.234;2023-12-20T12:53:20;5.93;;;1.47;;
14903;SDS011;7543;53.148;8.234;2023-12-20T12:55:48;4.27;;;1.37;;
14903;SDS011;7543;53.148;8.234;2023-12-20T12:58:17;6.40;;;1.80;;
14903;SDS011;7543;53.148;8.234;2023-12-20T13:00:45;5.60;;;1.57;;
14903;SDS011;7543;53.148;8.234;2023-12-20T13:03:15;11.23;;;1.97;;
14903;SDS011;7543;53.148;8.234;2023-12-20T13:05:43;8.77;;;1.97;;
14903;SDS011;7543;53.148;8.234;2023-12-20T13:08:11;7.67;;;1.73;;
14903;SDS011;7543;53.148;8.234;2023-12-20T13:10:40;5.03;;;1.27;;
14903;SDS011;7543;53.148;8.234;2023-12-20T13:13:08;8.33;;;1.47;;
14903;SDS011;7543;53.148;8.234;2023-12-20T13:15:37;7.83;;;1.53;;
14903;SDS011;7543;53.148;8.234;2023-12-20T13:18:05;5.57;;;1.50;;
14903;SDS011;7543;53.148;8.234;2023-12-20T13:20:35;7.03;;;1.60;;
14903;SDS011;7543;53.148;8.234;2023-12-20T13:23:06;4.77;;;1.63;;
14903;SDS011;7543;53.148;8.234;2023-12-20T13:25:34;6.87;;;1.67;;
14903;SDS011;7543;53.148;8.234;2023-12-20T13:28:03;11.40;;;1.73;;
14903;SDS011;7543;53.148;8.234;2023-12-20T13:30:32;4.97;;;1.50;;
14903;SDS011;7543;53.148;8.234;2023-12-20T13:33:02;6.53;;;1.77;;
14903;SDS011;7543;53.148;8.234;2023-12-20T13:35:38;10.00;;;2.30;;
14903;SDS011;7543;53.148;8.234;2023-12-20T13:38:12;6.63;;;1.50;;
14903;SDS011;7543;53.148;8.234;2023-12-20T13:40:40;13.60;;;2.13;;
14903;SDS011;7543;53.148;8.234;2023-12-20T13:43:09;6.83;;;1.70;;
14903;SDS011;7543;53.148;8.234;2023-12-20T13:45:38;8.87;;;1.67;;
14903;SDS011;7543;53.148;8.234;2023-12-20T13:48:07;10.73;;;1.70;;
14903;SDS011;7543;53.148;8.234;2023-12-20T13:50:37;7.03;;;1.63;;
14903;SDS011;7543;53.148;8.234;2023-12-20T13:53:06;7.87;;;1.63;;
14903;SDS011;7543;53.148;8.234;2023-12-20T13:55:34;12.27;;;1.80;;
14903;SDS011;7543;53.148;8.234;2023-12-20T13:58:02;6.27;;;1.50;;
14903;SDS011;7543;53.148;8.234;2023-12-20T14:00:31;10.57;;;1.70;;
14903;SDS011;7543;53.148;8.234;2023-12-20T14:02:59;4.50;;;1.27;;
14903;SDS011;7543;53.148;8.234;2023-12-20T14:05:28;4.73;;;1.40;;
14903;SDS011;7543;53.148;8.234;2023-12-20T14:10:28;6.30;;;1.27;;
14903;SDS011;7543;53.148;8.234;2023-12-20T14:12:56;11.17;;;1.70;;
14903;SDS011;7543;53.148;8.234;2023-12-20T14:15:25;10.03;;;1.80;;
14903;SDS011;7543;53.148;8.234;2023-12-20T14:17:53;4.67;;;1.43;;
14903;SDS011;7543;53.148;8.234;2023-12-20T14:20:22;8.67;;;1.83;;
14903;SDS011;7543;53.148;8.234;2023-12-20T14:22:50;6.57;;;1.40;;
14903;SDS011;7543;53.148;8.234;2023-12-20T14:25:19;8.30;;;1.27;;
14903;SDS011;7543;53.148;8.234;2023-12-20T14:27:51;12.43;;;2.10;;
14903;SDS011;7543;53.148;8.234;2023-12-20T14:30:19;6.07;;;1.53;;
14903;SDS011;7543;53.148;8.234;2023-12-20T14:32:47;6.70;;;1.27;;
14903;SDS011;7543;53.148;8.234;2023-12-20T14:35:16;3.83;;;1.13;;
14903;SDS011;7543;53.148;8.234;2023-12-20T14:37:46;9.93;;;1.50;;
14903;SDS011;7543;53.148;8.234;2023-12-20T14:40:14;6.77;;;1.17;;
14903;SDS011;7543;53.148;8.234;2023-12-20T14:42:43;3.00;;;1.17;;
14903;SDS011;7543;53.148;8.234;2023-12-20T14:45:13;7.40;;;1.50;;
14903;SDS011;7543;53.148;8.234;2023-12-20T14:47:42;5.57;;;1.57;;
14903;SDS011;7543;53.148;8.234;2023-12-20T14:50:11;4.60;;;0.90;;
14903;SDS011;7543;53.148;8.234;2023-12-20T14:52:45;7.67;;;1.30;;
14903;SDS011;7543;53.148;8.234;2023-12-20T14:55:13;8.07;;;1.83;;
14903;SDS011;7543;53.148;8.234;2023-12-20T14:57:42;5.53;;;1.13;;
14903;SDS011;7543;53.148;8.234;2023-12-20T15:00:10;6.40;;;1.33;;
14903;SDS011;7543;53.148;8.234;2023-12-20T15:02:44;5.27;;;1.13;;
14903;SDS011;7543;53.148;8.234;2023-12-20T15:05:13;2.77;;;1.10;;
14903;SDS011;7543;53.148;8.234;2023-12-20T15:07:42;9.40;;;1.63;;
14903;SDS011;7543;53.148;8.234;2023-12-20T15:10:10;5.27;;;1.30;;
14903;SDS011;7543;53.148;8.234;2023-12-20T15:12:39;5.97;;;1.40;;
14903;SDS011;7543;53.148;8.234;2023-12-20T15:15:07;11.07;;;1.83;;
14903;SDS011;7543;53.148;8.234;2023-12-20T15:17:37;6.60;;;1.30;;
14903;SDS011;7543;53.148;8.234;2023-12-20T15:20:07;5.93;;;1.43;;
14903;SDS011;7543;53.148;8.234;2023-12-20T15:22:37;3.23;;;1.20;;
14903;SDS011;7543;53.148;8.234;2023-12-20T15:25:06;5.93;;;1.20;;
14903;SDS011;7543;53.148;8.234;2023-12-20T15:27:35;8.57;;;1.53;;
14903;SDS011;7543;53.148;8.234;2023-12-20T15:30:48;7.23;;;1.50;;
14903;SDS011;7543;53.148;8.234;2023-12-20T15:34:01;3.50;;;1.03;;
14903;SDS011;7543;53.148;8.234;2023-12-20T15:37:15;6.03;;;1.40;;
14903;SDS011;7543;53.148;8.234;2023-12-20T15:40:28;7.27;;;1.67;;
14903;SDS011;7543;53.148;8.234;2023-12-20T15:43:41;7.93;;;1.47;;
14903;SDS011;7543;53.148;8.234;2023-12-20T15:46:54;5.40;;;1.80;;
14903;SDS011;7543;53.148;8.234;2023-12-20T15:50:07;6.53;;;1.47;;
14903;SDS011;7543;53.148;8.234;2023-12-20T15:53:22;4.90;;;1.10;;
14903;SDS011;7543;53.148;8.234;2023-12-20T15:56:35;5.37;;;1.20;;
14903;SDS011;7543;53.148;8.234;2023-12-20T15:59:49;2.77;;;1.13;;
14903;SDS011;7543;53.148;8.234;2023-12-20T16:03:03;2.20;;;1.10;;
14903;SDS011;7543;53.148;8.234;2023-12-20T16:06:41;6.37;;;1.43;;
14903;SDS011;7543;53.148;8.234;2023-12-20T16:09:57;7.47;;;1.33;;
14903;SDS011;7543;53.148;8.234;2023-12-20T16:13:11;3.03;;;0.97;;
14903;SDS011;7543;53.148;8.234;2023-12-20T16:16:24;3.13;;;0.90;;
14903;SDS011;7543;53.148;8.234;2023-12-20T16:19:37;5.30;;;1.10;;